Time;durP1;ratioP1;P1;durP2;ratioP2;P2;SDS_P1;SDS_P2;PMS_P1;PMS_P2;Temp;Humidity;BMP_temperature;BMP_pressure;BME280_temperature;BME280_humidity;BME280_pressure;Samples;Min_cycle;Max_cycle;Signal;HPM_P1;HPM_P2
2022/11/18 00:01:03;;;;;;;1.40;1.30;;;20.20;43.80;;;;;;4998451;28;20436;-63
2022/11/18 00:03:28;;;;;;;1.40;1.30;;;20.20;43.70;;;;;;4999749;28;20318;-63
2022/11/18 00:05:56;;;;;;;1.30;1.20;;;20.20;43.80;;;;;;4998872;28;20550;-64
2022/11/18 00:08:22;;;;;;;1.13;1.03;;;20.20;43.80;;;;;;4992084;28;20223;-64
2022/11/18 00:10:48;;;;;;;1.33;1.20;;;20.20;43.80;;;;;;5007255;28;20476;-63
2022/11/18 00:16:10;;;;;;;1.30;1.20;;;20.20;43.80;;;;;;5011887;28;20288;-63
2022/11/18 00:18:36;;;;;;;1.30;1.20;;;20.20;43.80;;;;;;4998543;28;20441;-64
2022/11/18 00:21:03;;;;;;;1.40;1.30;;;20.20;43.80;;;;;;5001146;28;20485;-63
2022/11/18 00:23:29;;;;;;;1.33;1.23;;;20.20;43.80;;;;;;4998959;28;20449;-63
2022/11/18 00:26:00;;;;;;;1.23;1.13;;;20.20;43.80;;;;;;4999371;28;20476;-64
2022/11/18 00:28:25;;;;;;;1.53;1.43;;;20.20;43.80;;;;;;4982303;28;20616;-64
2022/11/18 00:30:51;;;;;;;1.97;1.40;;;20.20;43.80;;;;;;4983348;28;20603;-64
2022/11/18 00:33:16;;;;;;;1.30;1.20;;;20.20;43.80;;;;;;4995825;28;20238;-63
2022/11/18 00:35:42;;;;;;;1.63;1.53;;;20.20;43.80;;;;;;4994622;28;20303;-64
2022/11/18 00:38:07;;;;;;;1.57;1.27;;;20.20;43.80;;;;;;4990130;28;20228;-64
2022/11/18 00:40:33;;;;;;;1.33;1.23;;;20.20;43.80;;;;;;4985486;28;20227;-64
2022/11/18 00:42:59;;;;;;;1.20;1.10;;;20.20;43.80;;;;;;4983486;28;20559;-64
2022/11/18 00:45:24;;;;;;;1.10;1.00;;;20.20;43.80;;;;;;4975998;28;20303;-64
2022/11/18 00:47:50;;;;;;;1.20;1.10;;;20.10;43.70;;;;;;4984088;28;20303;-63
2022/11/18 00:50:16;;;;;;;1.53;1.27;;;20.20;43.80;;;;;;4993840;28;20278;-64
2022/11/18 00:52:41;;;;;;;1.30;1.20;;;20.20;43.80;;;;;;4999156;28;20234;-63
2022/11/18 00:55:07;;;;;;;1.83;1.10;;;20.20;43.80;;;;;;4983522;28;20216;-64
2022/11/18 00:57:33;;;;;;;1.30;1.20;;;20.20;43.80;;;;;;4983692;28;20223;-64
2022/11/18 00:59:58;;;;;;;1.20;1.10;;;20.10;43.70;;;;;;4984382;28;20497;-63
2022/11/18 01:02:24;;;;;;;1.43;1.33;;;20.20;43.80;;;;;;4993442;28;20227;-64
2022/11/18 01:04:49;;;;;;;1.23;1.13;;;20.10;43.70;;;;;;5000696;28;20212;-64
2022/11/18 01:07:15;;;;;;;1.43;1.33;;;20.20;43.80;;;;;;4986389;28;20234;-64
2022/11/18 01:09:41;;;;;;;1.30;1.20;;;20.20;43.80;;;;;;4989174;28;20231;-64
2022/11/18 01:14:52;;;;;;;1.27;1.17;;;20.10;43.70;;;;;;4989285;28;20278;-64
2022/11/18 01:17:17;;;;;;;1.40;1.30;;;20.10;43.80;;;;;;4976640;28;20428;-64
2022/11/18 01:19:43;;;;;;;1.40;1.30;;;20.10;43.80;;;;;;4981417;28;20883;-63
2022/11/18 01:22:08;;;;;;;1.20;1.10;;;20.10;43.70;;;;;;4984297;28;20217;-64
2022/11/18 01:24:34;;;;;;;1.50;1.40;;;20.10;43.70;;;;;;4984656;28;20213;-64
2022/11/18 01:27:01;;;;;;;2.73;1.50;;;20.10;43.70;;;;;;4978613;28;20291;-64
2022/11/18 01:29:26;;;;;;;1.47;1.37;;;20.10;43.80;;;;;;4980990;28;20263;-63
2022/11/18 01:31:52;;;;;;;1.57;1.47;;;20.10;43.70;;;;;;4981559;28;20490;-63
2022/11/18 01:34:17;;;;;;;1.40;1.20;;;20.10;43.70;;;;;;4985537;28;20223;-64
2022/11/18 01:36:43;;;;;;;3.50;1.60;;;20.10;44.50;;;;;;4976896;28;20228;-64
2022/11/18 01:39:08;;;;;;;2.13;1.40;;;20.10;43.80;;;;;;4983174;28;20228;-64
2022/11/18 01:41:34;;;;;;;1.47;1.37;;;20.10;43.70;;;;;;4982420;28;20246;-64
2022/11/18 01:44:01;;;;;;;1.33;1.23;;;20.10;43.70;;;;;;4977007;28;20228;-64
2022/11/18 01:46:29;;;;;;;1.80;1.43;;;20.10;43.70;;;;;;4989956;28;20244;-64
2022/11/18 01:49:03;;;;;;;1.70;1.23;;;20.10;43.70;;;;;;4998372;28;21021;-63
2022/11/18 01:51:33;;;;;;;1.40;1.30;;;20.10;43.70;;;;;;4999269;28;20500;-63
2022/11/18 01:54:06;;;;;;;1.20;1.10;;;20.10;43.70;;;;;;4998182;28;21078;-63
2022/11/18 01:56:51;;;;;;;1.33;1.20;;;20.10;43.80;;;;;;4991391;28;20468;-63
2022/11/18 01:59:20;;;;;;;1.07;1.00;;;20.10;43.70;;;;;;4982025;28;20532;-63
2022/11/18 02:01:46;;;;;;;1.50;1.40;;;20.10;43.70;;;;;;4976609;28;20461;-64
2022/11/18 02:04:13;;;;;;;1.40;1.00;;;20.10;43.80;;;;;;4996474;28;20967;-63
2022/11/18 02:06:40;;;;;;;1.30;1.20;;;20.10;43.80;;;;;;4987611;28;20232;-63
2022/11/18 02:09:06;;;;;;;1.33;1.23;;;20.10;43.80;;;;;;4988772;28;20456;-64
2022/11/18 02:11:50;;;;;;;1.30;1.20;;;20.10;43.80;;;;;;4987560;28;20450;-63
2022/11/18 02:14:45;;;;;;;1.57;1.47;;;20.10;43.80;;;;;;4981378;28;21352;-64
2022/11/18 02:17:35;;;;;;;1.50;1.40;;;20.10;43.70;;;;;;4972924;28;20561;-63
2022/11/18 02:20:11;;;;;;;1.70;1.60;;;20.10;43.80;;;;;;4980669;28;20467;-64
2022/11/18 02:22:58;;;;;;;2.30;1.40;;;20.10;43.80;;;;;;4997445;28;20468;-63
2022/11/18 02:25:57;;;;;;;1.10;1.00;;;20.10;43.80;;;;;;4995983;28;20476;-63
2022/11/18 02:28:45;;;;;;;1.40;1.30;;;20.10;43.80;;;;;;4997412;28;20878;-63
2022/11/18 02:31:28;;;;;;;1.73;1.30;;;20.10;43.80;;;;;;4997907;28;20456;-63
2022/11/18 02:34:19;;;;;;;1.53;1.30;;;20.10;43.80;;;;;;4990394;28;21153;-64
2022/11/18 02:36:58;;;;;;;1.37;1.27;;;20.10;43.80;;;;;;4972611;28;20777;-63
2022/11/18 02:39:32;;;;;;;1.73;1.63;;;20.10;43.80;;;;;;4972889;28;21194;-63
2022/11/18 02:42:00;;;;;;;1.63;1.53;;;20.10;43.90;;;;;;4978769;28;20431;-64
2022/11/18 02:44:28;;;;;;;1.20;1.10;;;20.10;43.80;;;;;;4990187;28;20494;-63
2022/11/18 02:46:58;;;;;;;1.30;1.20;;;20.10;43.80;;;;;;4998840;28;20487;-63
2022/11/18 02:49:41;;;;;;;1.70;1.60;;;20.10;43.80;;;;;;4999024;28;20576;-64
2022/11/18 02:52:09;;;;;;;1.33;1.20;;;20.10;43.80;;;;;;4997199;28;20411;-65
2022/11/18 02:54:38;;;;;;;1.50;1.20;;;20.10;43.90;;;;;;4997266;28;20520;-63
2022/11/18 02:57:04;;;;;;;1.30;1.20;;;20.10;43.80;;;;;;4984247;28;20466;-64
2022/11/18 02:59:30;;;;;;;1.40;1.20;;;20.10;43.80;;;;;;4993586;28;20438;-64
2022/11/18 03:01:55;;;;;;;1.20;1.10;;;20.10;43.80;;;;;;4985899;28;20472;-64
2022/11/18 03:04:23;;;;;;;1.30;1.20;;;20.10;43.80;;;;;;4973190;28;20948;-64
2022/11/18 03:07:02;;;;;;;1.83;1.30;;;20.10;43.80;;;;;;4977877;28;20282;-64
2022/11/18 03:09:35;;;;;;;1.07;0.97;;;20.10;43.80;;;;;;4974349;28;20439;-64
2022/11/18 03:12:31;;;;;;;1.20;1.10;;;20.10;43.90;;;;;;4975452;28;20484;-63
2022/11/18 03:15:02;;;;;;;1.40;1.30;;;20.00;43.70;;;;;;4975311;28;21029;-64
2022/11/18 03:17:37;;;;;;;1.30;1.20;;;20.00;43.80;;;;;;4979177;28;20433;-64
2022/11/18 03:20:20;;;;;;;1.90;1.20;;;20.00;43.80;;;;;;4983444;28;20486;-63
2022/11/18 03:23:07;;;;;;;1.40;1.30;;;20.10;43.80;;;;;;4982107;28;20446;-63
2022/11/18 03:25:56;;;;;;;1.20;1.10;;;20.10;43.90;;;;;;4977771;28;20431;-63
2022/11/18 03:28:29;;;;;;;1.40;1.10;;;20.10;43.80;;;;;;4994453;28;21137;-63
2022/11/18 03:31:16;;;;;;;1.23;1.13;;;20.00;43.70;;;;;;4995653;28;20556;-63
2022/11/18 03:33:50;;;;;;;1.20;1.10;;;20.00;43.70;;;;;;4996454;28;20864;-64
2022/11/18 03:36:20;;;;;;;1.30;1.20;;;20.00;43.70;;;;;;4996109;28;20448;-64
2022/11/18 03:38:51;;;;;;;1.10;1.00;;;20.00;43.70;;;;;;4999651;28;20792;-63
2022/11/18 03:41:19;;;;;;;1.13;1.03;;;20.00;43.80;;;;;;4989503;28;20463;-63
2022/11/18 03:44:00;;;;;;;1.30;1.20;;;20.00;43.80;;;;;;4976193;28;20457;-65
2022/11/18 03:46:37;;;;;;;1.23;1.03;;;20.00;43.80;;;;;;4978607;28;20492;-64
2022/11/18 03:49:06;;;;;;;1.30;1.20;;;20.00;44.20;;;;;;4974529;28;20448;-64
2022/11/18 03:51:38;;;;;;;1.30;1.10;;;20.00;43.80;;;;;;4984859;28;20859;-64
2022/11/18 03:54:12;;;;;;;1.20;1.10;;;20.00;43.80;;;;;;4982036;28;20421;-64
2022/11/18 03:56:42;;;;;;;1.20;1.10;;;20.00;43.80;;;;;;4998911;28;20458;-64
2022/11/18 03:59:14;;;;;;;1.20;1.10;;;20.00;43.80;;;;;;4998788;28;20449;-64
2022/11/18 04:01:45;;;;;;;1.30;1.20;;;20.00;43.70;;;;;;5002995;28;20460;-64
2022/11/18 04:04:12;;;;;;;1.30;1.20;;;20.00;43.80;;;;;;5000339;28;20457;-63
2022/11/18 04:06:49;;;;;;;1.30;1.20;;;20.00;43.80;;;;;;4998026;28;20535;-64
2022/11/18 04:09:27;;;;;;;1.30;1.20;;;20.00;43.70;;;;;;4996870;28;20481;-64
2022/11/18 04:12:06;;;;;;;1.30;1.20;;;20.00;43.80;;;;;;4984827;28;20437;-64
2022/11/18 04:14:34;;;;;;;1.20;1.10;;;20.00;43.80;;;;;;4996576;28;21289;-64
2022/11/18 04:17:07;;;;;;;1.53;1.10;;;20.00;43.70;;;;;;5000192;28;20529;-63
2022/11/18 04:19:33;;;;;;;1.17;1.07;;;20.00;43.80;;;;;;5001572;28;20447;-64
2022/11/18 04:21:58;;;;;;;1.43;1.33;;;20.00;43.80;;;;;;5003241;28;20435;-64
2022/11/18 04:24:24;;;;;;;1.20;1.10;;;20.00;43.70;;;;;;4996831;28;20224;-63
2022/11/18 04:26:49;;;;;;;1.20;1.10;;;20.00;43.80;;;;;;4998990;28;20231;-63
2022/11/18 04:29:15;;;;;;;1.10;1.00;;;20.00;43.80;;;;;;4989255;28;20259;-63
2022/11/18 04:31:40;;;;;;;1.10;0.90;;;20.00;43.80;;;;;;4989196;28;20269;-64
2022/11/18 04:34:06;;;;;;;1.30;1.20;;;20.00;43.80;;;;;;5000003;28;20219;-64
2022/11/18 04:36:31;;;;;;;1.00;0.90;;;20.00;43.80;;;;;;4985295;28;20230;-63
2022/11/18 04:38:57;;;;;;;1.10;1.00;;;20.00;43.80;;;;;;4977482;28;20220;-64
2022/11/18 04:41:54;;;;;;;1.20;1.10;;;20.00;43.80;;;;;;4985973;28;20235;-63
2022/11/18 04:44:11;;;;;;;1.20;1.10;;;20.00;43.80;;;;;;4998126;28;20219;-64
2022/11/18 04:46:38;;;;;;;1.30;1.20;;;20.00;43.80;;;;;;4982029;28;20458;-64
2022/11/18 04:49:04;;;;;;;1.23;1.13;;;20.00;43.80;;;;;;4983248;28;20496;-63
2022/11/18 04:51:29;;;;;;;1.17;1.07;;;20.00;43.80;;;;;;4978761;28;20418;-63
2022/11/18 04:53:55;;;;;;;1.20;1.10;;;20.00;43.80;;;;;;4999078;28;20216;-64
2022/11/18 04:56:20;;;;;;;1.43;1.33;;;20.00;43.80;;;;;;4998276;28;20267;-63
2022/11/18 04:58:46;;;;;;;1.23;1.13;;;20.10;43.90;;;;;;4996083;28;20760;-64
2022/11/18 05:01:11;;;;;;;1.40;1.30;;;20.10;43.90;;;;;;4983865;28;20231;-64
2022/11/18 05:03:37;;;;;;;1.20;1.10;;;20.10;43.80;;;;;;4993151;28;20597;-65
2022/11/18 05:06:02;;;;;;;1.37;1.27;;;20.10;43.80;;;;;;4997208;28;20233;-64
2022/11/18 05:08:28;;;;;;;1.30;1.20;;;20.10;43.80;;;;;;4999725;28;20248;-63
2022/11/18 05:12:47;;;;;;;1.20;1.10;;;20.10;43.80;;;;;;5000624;28;20385;-64
2022/11/18 05:13:39;;;;;;;1.37;1.27;;;20.10;43.80;;;;;;4980435;28;20319;-65
2022/11/18 05:16:05;;;;;;;1.23;1.07;;;20.10;43.80;;;;;;4976183;28;20423;-64
2022/11/18 05:18:30;;;;;;;1.10;1.00;;;20.10;43.70;;;;;;4978156;28;20228;-61
2022/11/18 05:20:56;;;;;;;1.10;1.00;;;20.10;43.70;;;;;;4989664;28;20287;-63
2022/11/18 05:23:21;;;;;;;1.43;1.33;;;20.10;43.70;;;;;;4997551;28;20892;-63
2022/11/18 05:25:47;;;;;;;1.60;0.97;;;20.10;43.70;;;;;;4983754;28;20220;-62
2022/11/18 05:28:12;;;;;;;1.37;1.27;;;20.10;43.70;;;;;;4987279;28;20231;-64
2022/11/18 05:30:38;;;;;;;1.90;1.10;;;20.20;44.40;;;;;;4984971;28;20640;-64
2022/11/18 05:33:03;;;;;;;1.13;1.03;;;20.20;43.60;;;;;;4993075;28;20239;-64
2022/11/18 05:35:29;;;;;;;1.10;1.00;;;20.20;43.60;;;;;;4996759;28;20218;-64
2022/11/18 05:37:54;;;;;;;1.40;1.30;;;20.20;43.50;;;;;;4960779;28;20889;-65
2022/11/18 05:40:20;;;;;;;1.10;1.00;;;20.20;43.60;;;;;;4986497;28;20819;-65
2022/11/18 05:45:30;;;;;;;1.17;1.07;;;20.20;43.50;;;;;;4993291;28;20231;-65
2022/11/18 05:47:59;;;;;;;1.13;1.03;;;20.20;43.40;;;;;;4995243;28;20832;-65
2022/11/18 05:50:25;;;;;;;1.27;1.10;;;20.20;43.40;;;;;;4992596;28;20277;-64
2022/11/18 05:52:51;;;;;;;1.10;1.00;;;20.20;43.40;;;;;;4978397;28;20458;-65
2022/11/18 05:55:18;;;;;;;1.40;1.30;;;20.20;43.50;;;;;;4992807;28;20215;-64
2022/11/18 05:57:43;;;;;;;1.23;1.13;;;20.20;43.50;;;;;;4997310;28;20777;-64
2022/11/18 06:00:09;;;;;;;2.70;1.10;;;20.20;43.50;;;;;;4999493;28;20836;-64
2022/11/18 06:02:35;;;;;;;1.13;1.03;;;20.20;43.50;;;;;;5001371;28;20215;-65
2022/11/18 06:05:02;;;;;;;1.30;1.20;;;20.20;43.50;;;;;;5001986;28;20438;-64
2022/11/18 06:07:37;;;;;;;1.10;1.00;;;20.20;43.50;;;;;;4999924;28;20604;-64
2022/11/18 06:10:03;;;;;;;1.30;1.20;;;20.20;43.50;;;;;;4979795;28;20457;-64
2022/11/18 06:12:32;;;;;;;1.23;1.00;;;20.20;43.50;;;;;;4985086;28;20425;-64
2022/11/18 06:15:07;;;;;;;1.10;1.00;;;20.20;43.50;;;;;;4986292;28;20449;-62
2022/11/18 06:17:40;;;;;;;1.20;1.00;;;20.20;43.40;;;;;;4999304;28;20452;-63
2022/11/18 06:20:06;;;;;;;1.03;0.93;;;20.20;43.50;;;;;;4999927;28;20447;-61
2022/11/18 06:22:34;;;;;;;1.27;1.17;;;20.20;43.50;;;;;;5004572;28;20527;-62
2022/11/18 06:25:00;;;;;;;1.00;0.90;;;20.30;43.50;;;;;;4987667;28;20424;-64
2022/11/18 06:27:27;;;;;;;1.20;1.10;;;20.20;43.40;;;;;;4982266;28;20469;-64
2022/11/18 06:29:53;;;;;;;0.90;0.83;;;20.30;43.60;;;;;;4980054;28;20469;-63
2022/11/18 06:32:18;;;;;;;1.30;1.10;;;20.20;43.50;;;;;;4971876;28;20515;-63
2022/11/18 06:34:44;;;;;;;1.13;1.03;;;20.20;43.50;;;;;;4980243;28;21105;-64
2022/11/18 06:37:19;;;;;;;2.30;1.07;;;20.20;43.50;;;;;;4977985;28;20232;-64
2022/11/18 06:39:45;;;;;;;2.60;1.23;;;20.20;43.50;;;;;;4992166;28;20226;-64
2022/11/18 06:43:37;;;;;;;2.00;1.40;;;20.20;43.50;;;;;;4998752;28;20453;-63
2022/11/18 06:44:56;;;;;;;1.20;1.10;;;20.20;43.50;;;;;;4993468;28;20245;-63
2022/11/18 06:47:22;;;;;;;1.73;1.00;;;20.20;43.50;;;;;;4995892;28;20544;-63
2022/11/18 06:49:47;;;;;;;3.40;1.00;;;20.20;43.50;;;;;;4992035;28;20212;-64
2022/11/18 06:52:13;;;;;;;1.10;1.00;;;20.20;43.50;;;;;;4975983;28;20224;-63
2022/11/18 06:54:38;;;;;;;1.43;1.13;;;20.20;43.50;;;;;;4985580;28;20277;-66
2022/11/18 06:57:04;;;;;;;1.30;1.20;;;20.20;43.50;;;;;;4982041;28;21098;-65
2022/11/18 06:59:29;;;;;;;1.10;1.00;;;20.20;43.50;;;;;;4978582;28;23394;-66
2022/11/18 07:01:55;;;;;;;1.10;1.00;;;20.20;43.50;;;;;;4972287;28;20652;-66
2022/11/18 07:04:21;;;;;;;1.23;1.13;;;20.20;43.50;;;;;;4971982;28;20216;-66
2022/11/18 07:06:46;;;;;;;1.43;1.33;;;20.20;43.50;;;;;;4974124;28;20490;-65
2022/11/18 07:09:12;;;;;;;1.13;1.03;;;20.20;43.50;;;;;;4984237;28;20227;-65
2022/11/18 07:11:40;;;;;;;1.10;1.00;;;20.20;43.50;;;;;;4980428;28;20216;-65
2022/11/18 07:14:06;;;;;;;1.83;1.10;;;20.20;43.50;;;;;;4982532;28;20798;-65
2022/11/18 07:16:33;;;;;;;1.40;1.23;;;20.20;43.50;;;;;;4976720;28;20474;-65
2022/11/18 07:18:59;;;;;;;1.10;1.00;;;20.20;43.50;;;;;;4977935;28;20509;-65
2022/11/18 07:21:26;;;;;;;2.80;1.10;;;20.20;43.50;;;;;;4982298;28;20439;-65
2022/11/18 07:23:53;;;;;;;2.40;1.27;;;20.20;43.50;;;;;;4996784;28;20239;-66
2022/11/18 07:26:19;;;;;;;1.20;1.10;;;20.20;43.50;;;;;;4997692;28;20593;-65
2022/11/18 07:28:45;;;;;;;4.37;1.40;;;20.20;43.50;;;;;;5002867;28;20465;-65
2022/11/18 07:31:16;;;;;;;3.50;1.30;;;20.20;43.50;;;;;;5000614;28;20601;-65
2022/11/18 07:33:43;;;;;;;1.43;1.20;;;20.20;43.50;;;;;;4987875;28;20309;-65
2022/11/18 07:36:11;;;;;;;1.70;1.10;;;20.20;43.50;;;;;;4985704;28;20452;-65
2022/11/18 07:38:36;;;;;;;1.10;1.00;;;20.20;43.50;;;;;;4981540;28;20534;-65
2022/11/18 07:41:15;;;;;;;1.07;0.97;;;20.20;43.50;;;;;;4984109;28;20452;-65
2022/11/18 07:43:41;;;;;;;1.30;1.20;;;20.20;43.50;;;;;;4984719;28;20683;-65
2022/11/18 07:46:15;;;;;;;1.13;1.03;;;20.20;43.50;;;;;;4981625;28;20953;-64
2022/11/18 07:48:42;;;;;;;2.50;1.00;;;20.20;43.50;;;;;;4999642;28;20456;-65
2022/11/18 07:51:09;;;;;;;1.93;1.03;;;20.20;43.50;;;;;;4999853;28;20506;-66
2022/11/18 07:53:35;;;;;;;1.10;1.00;;;20.20;43.40;;;;;;5000734;28;20461;-65
2022/11/18 07:56:01;;;;;;;1.07;0.97;;;20.20;43.50;;;;;;5000060;28;20472;-65
2022/11/18 07:58:27;;;;;;;1.10;1.00;;;20.20;43.50;;;;;;4992744;28;20499;-65
2022/11/18 08:00:52;;;;;;;1.20;1.10;;;20.20;43.50;;;;;;4999942;28;20423;-65
2022/11/18 08:03:18;;;;;;;1.00;0.90;;;20.20;43.50;;;;;;4994126;28;20254;-65
2022/11/18 08:05:44;;;;;;;1.13;1.03;;;20.20;43.50;;;;;;5000675;28;20312;-65
2022/11/18 08:08:09;;;;;;;1.47;1.17;;;20.20;43.50;;;;;;4995186;28;20907;-65
2022/11/18 08:10:35;;;;;;;1.40;1.03;;;20.20;43.50;;;;;;4999693;28;20218;-65
2022/11/18 08:13:01;;;;;;;1.10;1.00;;;20.20;43.50;;;;;;4990235;28;20227;-65
2022/11/18 08:15:26;;;;;;;2.13;1.20;;;20.20;43.50;;;;;;4994803;28;20453;-65
2022/11/18 08:17:52;;;;;;;1.10;1.00;;;20.20;43.50;;;;;;5000412;28;20231;-65
2022/11/18 08:20:18;;;;;;;1.97;1.33;;;20.20;43.50;;;;;;4999221;28;20281;-65
2022/11/18 08:22:44;;;;;;;1.10;0.97;;;20.20;43.50;;;;;;4999090;28;20231;-65
2022/11/18 08:25:09;;;;;;;1.70;1.10;;;20.20;43.50;;;;;;4999234;28;20891;-65
2022/11/18 08:27:35;;;;;;;1.80;1.20;;;20.20;43.50;;;;;;4998107;28;20775;-65
2022/11/18 08:30:00;;;;;;;1.20;1.10;;;20.20;43.50;;;;;;5002501;28;20234;-65
2022/11/18 08:32:27;;;;;;;1.10;1.00;;;20.20;43.50;;;;;;4998577;28;20261;-65
2022/11/18 08:34:52;;;;;;;1.10;1.00;;;20.20;43.50;;;;;;5005104;28;20220;-65
2022/11/18 08:37:18;;;;;;;0.93;0.87;;;20.20;43.50;;;;;;4986158;28;20555;-65
2022/11/18 08:39:43;;;;;;;1.70;1.10;;;20.20;43.60;;;;;;4991133;28;20255;-64
2022/11/18 08:42:09;;;;;;;0.90;0.90;;;20.20;43.50;;;;;;4981041;28;20231;-65
2022/11/18 08:44:35;;;;;;;1.47;1.10;;;20.20;43.50;;;;;;4986330;28;20669;-65
2022/11/18 08:47:01;;;;;;;1.40;1.30;;;20.20;43.50;;;;;;4982066;28;20427;-65
2022/11/18 08:49:27;;;;;;;1.07;0.90;;;20.20;43.60;;;;;;4979124;28;20228;-65
2022/11/18 08:51:53;;;;;;;0.97;0.87;;;20.20;43.50;;;;;;4981771;28;20268;-64
2022/11/18 08:54:18;;;;;;;1.23;1.13;;;20.20;43.60;;;;;;4981386;28;20223;-64
2022/11/18 08:56:44;;;;;;;1.20;1.00;;;20.20;43.60;;;;;;4990780;28;20228;-65
2022/11/18 08:59:09;;;;;;;0.93;0.87;;;20.20;43.60;;;;;;4995939;28;20242;-66
2022/11/18 09:01:36;;;;;;;0.90;0.90;;;20.20;43.60;;;;;;4998246;28;20705;-65
2022/11/18 09:04:03;;;;;;;1.30;1.10;;;20.20;43.60;;;;;;4995280;28;20667;-65
2022/11/18 09:06:29;;;;;;;1.77;1.23;;;20.20;43.60;;;;;;4997303;28;20496;-65
2022/11/18 09:08:54;;;;;;;1.37;1.27;;;20.20;43.50;;;;;;4997286;28;20973;-65
2022/11/18 09:11:23;;;;;;;1.10;0.80;;;20.20;43.60;;;;;;4997198;28;20460;-64
2022/11/18 09:13:57;;;;;;;1.13;1.03;;;20.20;43.50;;;;;;4989174;28;20224;-65
2022/11/18 09:16:24;;;;;;;1.20;1.10;;;20.20;43.60;;;;;;4981253;28;20491;-64
2022/11/18 09:18:50;;;;;;;1.10;1.00;;;20.20;43.50;;;;;;4979284;28;20466;-65
2022/11/18 09:21:18;;;;;;;1.20;1.10;;;20.20;43.60;;;;;;4971007;28;20445;-64
2022/11/18 09:23:44;;;;;;;1.20;1.00;;;20.20;43.60;;;;;;4983013;28;21030;-64
2022/11/18 09:26:13;;;;;;;1.40;1.00;;;20.20;43.60;;;;;;4997692;28;20888;-64
2022/11/18 09:28:38;;;;;;;1.37;0.93;;;20.20;43.60;;;;;;4994047;28;21085;-65
2022/11/18 09:31:10;;;;;;;1.10;1.00;;;20.20;43.60;;;;;;4984937;28;20453;-64
2022/11/18 09:33:37;;;;;;;1.10;1.00;;;20.20;43.60;;;;;;4983932;28;20228;-64
2022/11/18 09:36:04;;;;;;;1.10;1.00;;;20.20;43.60;;;;;;4980697;28;20818;-64
2022/11/18 09:38:31;;;;;;;1.00;0.90;;;20.20;43.60;;;;;;4981223;28;20446;-64
2022/11/18 09:41:08;;;;;;;0.90;0.90;;;20.20;43.60;;;;;;4979683;28;20458;-64
2022/11/18 09:43:46;;;;;;;1.20;1.10;;;20.20;43.60;;;;;;4997925;28;20448;-64
2022/11/18 09:46:28;;;;;;;1.10;1.00;;;20.20;43.60;;;;;;4994433;28;20672;-64
2022/11/18 09:49:13;;;;;;;0.93;0.83;;;20.20;43.60;;;;;;4995262;28;20466;-64
2022/11/18 09:51:42;;;;;;;1.03;0.93;;;20.20;43.60;;;;;;4998078;28;20448;-65
2022/11/18 09:54:22;;;;;;;1.00;0.90;;;20.20;43.70;;;;;;4995570;28;20447;-65
2022/11/18 09:56:49;;;;;;;1.53;1.00;;;20.20;43.60;;;;;;4994041;28;20465;-65
2022/11/18 09:59:18;;;;;;;1.20;1.10;;;20.20;43.60;;;;;;4996433;28;20481;-64
2022/11/18 10:01:44;;;;;;;2.30;1.20;;;20.20;43.70;;;;;;4990899;28;20501;-65
2022/11/18 10:04:18;;;;;;;1.10;1.00;;;20.20;43.60;;;;;;4995846;28;20453;-64
2022/11/18 10:06:45;;;;;;;1.10;1.00;;;20.20;43.60;;;;;;4999914;28;20223;-65
2022/11/18 10:09:31;;;;;;;1.00;0.90;;;20.20;43.60;;;;;;4998061;28;20453;-64
2022/11/18 10:12:11;;;;;;;1.73;0.90;;;20.20;43.60;;;;;;4992888;28;20459;-64
2022/11/18 10:15:01;;;;;;;1.10;1.00;;;20.20;43.60;;;;;;4975395;28;20595;-65
2022/11/18 10:17:43;;;;;;;1.10;1.00;;;20.20;43.60;;;;;;4976403;28;21138;-64
2022/11/18 10:20:21;;;;;;;1.50;1.10;;;20.20;43.60;;;;;;4993858;28;20486;-65
2022/11/18 10:23:15;;;;;;;1.27;1.10;;;20.20;43.70;;;;;;4988911;28;20503;-64
2022/11/18 10:25:41;;;;;;;1.00;0.90;;;20.20;43.60;;;;;;4995940;28;20619;-64
2022/11/18 10:28:19;;;;;;;2.60;1.40;;;20.20;43.70;;;;;;4999576;28;20854;-64
2022/11/18 10:30:45;;;;;;;0.83;0.80;;;20.20;43.60;;;;;;4991635;28;20307;-64
2022/11/18 10:33:24;;;;;;;1.10;1.00;;;20.20;43.60;;;;;;4992630;28;21125;-65
2022/11/18 10:36:06;;;;;;;1.20;1.00;;;20.20;43.60;;;;;;4983084;28;20232;-64
2022/11/18 10:38:32;;;;;;;1.03;0.97;;;20.20;43.60;;;;;;4988788;28;20485;-64
2022/11/18 10:41:03;;;;;;;1.07;0.97;;;20.20;43.60;;;;;;4982598;28;20585;-64
2022/11/18 10:43:49;;;;;;;0.87;0.87;;;20.20;43.60;;;;;;4978406;28;20219;-64
2022/11/18 10:46:29;;;;;;;0.97;0.87;;;20.20;43.60;;;;;;4975358;28;20480;-64
2022/11/18 10:49:16;;;;;;;1.07;0.97;;;20.20;43.60;;;;;;4979929;28;20563;-64
2022/11/18 10:51:47;;;;;;;1.50;1.23;;;20.20;43.60;;;;;;4992951;28;20438;-64
2022/11/18 10:54:14;;;;;;;0.90;0.90;;;20.20;43.60;;;;;;4991549;28;21367;-64
2022/11/18 10:56:45;;;;;;;0.93;0.83;;;20.20;43.60;;;;;;4994732;28;20468;-64
2022/11/18 10:59:45;;;;;;;1.07;0.97;;;20.20;43.60;;;;;;4993395;28;20468;-65
2022/11/18 11:02:29;;;;;;;1.17;1.07;;;20.30;43.70;;;;;;4974809;28;20452;-64
2022/11/18 11:04:56;;;;;;;1.77;1.10;;;20.20;43.80;;;;;;4976080;28;20548;-64
2022/11/18 11:07:34;;;;;;;0.97;0.80;;;20.20;43.60;;;;;;4981965;28;20497;-65
2022/11/18 11:10:01;;;;;;;1.37;1.00;;;20.20;43.60;;;;;;4997461;28;20460;-65
2022/11/18 11:12:30;;;;;;;1.27;1.07;;;20.30;43.70;;;;;;4998298;28;20446;-64
2022/11/18 11:14:59;;;;;;;2.20;1.07;;;20.20;43.60;;;;;;4997595;28;20465;-64
2022/11/18 11:17:35;;;;;;;1.10;1.00;;;20.20;43.60;;;;;;4993908;28;20457;-64
2022/11/18 11:20:16;;;;;;;1.00;0.90;;;20.30;43.60;;;;;;4995143;28;20457;-65
2022/11/18 11:22:42;;;;;;;1.97;1.30;;;20.30;43.60;;;;;;4974426;28;20513;-64
2022/11/18 11:25:30;;;;;;;0.97;0.97;;;20.30;43.60;;;;;;4975432;28;20461;-65
2022/11/18 11:28:26;;;;;;;1.13;0.93;;;20.30;43.60;;;;;;4973933;28;20482;-64
2022/11/18 11:31:03;;;;;;;0.80;0.80;;;20.30;43.60;;;;;;4984039;28;20560;-64
2022/11/18 11:33:46;;;;;;;1.00;0.90;;;20.30;43.60;;;;;;4980141;28;20453;-65
2022/11/18 11:36:30;;;;;;;1.00;0.90;;;20.30;43.60;;;;;;4993893;28;20551;-64
2022/11/18 11:39:17;;;;;;;1.10;1.00;;;20.30;43.60;;;;;;4997076;28;20453;-64
2022/11/18 11:42:13;;;;;;;0.90;0.83;;;20.30;43.60;;;;;;4974269;28;20826;-64
2022/11/18 11:44:49;;;;;;;1.00;0.90;;;20.30;43.60;;;;;;4989539;28;20568;-65
2022/11/18 11:50:16;;;;;;;1.70;0.80;;;20.30;43.60;;;;;;4989961;28;20541;-65
2022/11/18 11:53:00;;;;;;;1.03;0.90;;;20.30;43.60;;;;;;4987311;28;20501;-64
2022/11/18 11:55:30;;;;;;;1.07;0.90;;;20.30;43.60;;;;;;4993166;28;20461;-64
2022/11/18 11:58:11;;;;;;;0.80;0.80;;;20.30;44.40;;;;;;4992019;28;20572;-64
2022/11/18 12:00:43;;;;;;;0.80;0.80;;;20.30;43.60;;;;;;4979562;28;20453;-64
2022/11/18 12:03:33;;;;;;;0.70;0.70;;;20.30;43.60;;;;;;4977754;28;20505;-64
2022/11/18 12:05:58;;;;;;;1.60;1.10;;;20.30;43.60;;;;;;4999271;28;21103;-64
2022/11/18 12:08:29;;;;;;;0.80;0.80;;;20.30;43.70;;;;;;4978413;28;20461;-64
2022/11/18 12:11:26;;;;;;;0.87;0.80;;;20.30;43.70;;;;;;4975863;28;20231;-64
2022/11/18 12:13:51;;;;;;;1.03;1.00;;;20.30;43.60;;;;;;4978214;28;20454;-64
2022/11/18 12:16:39;;;;;;;1.10;1.00;;;20.30;43.60;;;;;;5003488;28;21133;-64
2022/11/18 12:19:18;;;;;;;1.20;1.10;;;20.30;43.60;;;;;;4996760;28;20231;-64
2022/11/18 12:21:44;;;;;;;1.10;0.90;;;20.30;43.60;;;;;;4989069;28;20435;-64
2022/11/18 12:24:23;;;;;;;1.70;1.03;;;20.30;43.60;;;;;;4980171;28;20509;-64
2022/11/18 12:26:49;;;;;;;1.10;1.00;;;20.30;43.60;;;;;;4982962;28;20490;-65
2022/11/18 12:29:30;;;;;;;0.93;0.90;;;20.30;43.70;;;;;;4992847;28;20460;-65
2022/11/18 12:31:57;;;;;;;0.80;0.80;;;20.30;43.60;;;;;;4998596;28;20814;-65
2022/11/18 12:34:29;;;;;;;1.10;1.00;;;20.30;43.60;;;;;;4998729;28;20478;-65
2022/11/18 12:36:55;;;;;;;1.00;0.90;;;20.30;43.60;;;;;;5000465;28;20983;-61
2022/11/18 12:39:24;;;;;;;0.90;0.80;;;20.30;43.70;;;;;;5000881;28;20457;-62
2022/11/18 12:44:36;;;;;;;1.10;1.00;;;20.30;43.60;;;;;;4977016;28;21384;-61
2022/11/18 12:47:03;;;;;;;0.80;0.80;;;20.30;43.60;;;;;;4971315;28;21347;-62
2022/11/18 12:49:28;;;;;;;1.00;0.90;;;20.30;43.60;;;;;;4997347;28;20620;-62
2022/11/18 12:51:55;;;;;;;1.50;1.00;;;20.30;43.60;;;;;;4984680;28;20978;-62
2022/11/18 12:54:32;;;;;;;0.80;0.80;;;20.30;43.60;;;;;;4997711;28;20898;-61
2022/11/18 12:57:31;;;;;;;1.20;1.10;;;20.30;43.60;;;;;;4999659;28;21000;-61
2022/11/18 12:59:57;;;;;;;1.00;0.90;;;20.30;43.70;;;;;;4972531;28;20732;-61
2022/11/18 13:02:31;;;;;;;1.37;1.27;;;20.30;43.60;;;;;;4983540;28;20450;-61
2022/11/18 13:05:09;;;;;;;1.30;1.20;;;20.30;43.60;;;;;;4986088;28;20870;-61
2022/11/18 13:10:39;;;;;;;1.70;1.60;;;20.30;43.60;;;;;;4990463;28;21051;-63
2022/11/18 13:13:06;;;;;;;1.63;1.53;;;20.30;43.60;;;;;;4988172;28;20466;-62
2022/11/18 13:18:18;;;;;;;1.80;1.70;;;20.30;43.70;;;;;;4992327;28;20447;-61
2022/11/18 13:20:56;;;;;;;1.60;1.50;;;20.30;43.60;;;;;;4992373;28;20480;-61
2022/11/18 13:26:25;;;;;;;1.90;1.80;;;20.30;43.70;;;;;;4996132;28;20492;-61
2022/11/18 13:29:31;;;;;;;2.50;2.30;;;20.30;43.70;;;;;;4998960;28;20428;-61